createdAt,value
2018-02-07T00:02:20.907Z,46.63
2018-02-07T00:04:48.339Z,42.70
2018-02-07T00:07:15.790Z,44.28
2018-02-07T00:09:42.487Z,42.28
2018-02-07T00:12:09.187Z,42.72
2018-02-07T00:14:35.949Z,45.10
2018-02-07T00:17:03.368Z,44.20
2018-02-07T00:19:37.150Z,46.45
2018-02-07T00:22:03.804Z,42.85
2018-02-07T00:24:30.495Z,41.22
2018-02-07T00:26:57.939Z,39.20
2018-02-07T00:29:24.590Z,38.67
2018-02-07T00:31:51.278Z,36.22
2018-02-07T00:34:17.955Z,34.60
2018-02-07T00:36:44.625Z,38.60
2018-02-07T00:39:11.321Z,38.03
2018-02-07T00:41:37.981Z,36.05
2018-02-07T00:44:04.751Z,37.65
2018-02-07T00:46:31.553Z,43.20
2018-02-07T00:48:58.213Z,40.28
2018-02-07T00:51:24.943Z,39.22
2018-02-07T00:53:51.626Z,40.17
2018-02-07T00:56:18.306Z,39.72
2018-02-07T00:58:44.986Z,42.90
2018-02-07T01:01:11.674Z,41.37
2018-02-07T01:03:39.161Z,36.80
2018-02-07T01:06:05.827Z,42.92
2018-02-07T01:08:32.511Z,41.22
2018-02-07T01:10:59.956Z,43.08
2018-02-07T01:13:26.719Z,39.58
2018-02-07T01:15:53.432Z,38.58
2018-02-07T01:18:20.129Z,38.03
2018-02-07T01:20:46.822Z,36.30
2018-02-07T01:23:13.463Z,41.88
2018-02-07T01:25:40.183Z,38.55
2018-02-07T01:28:06.871Z,38.42
2018-02-07T01:30:33.586Z,38.40
2018-02-07T01:33:00.282Z,39.70
2018-02-07T01:35:26.980Z,39.50
2018-02-07T01:37:53.655Z,41.45
2018-02-07T01:40:21.069Z,41.97
2018-02-07T01:42:47.731Z,38.72
2018-02-07T01:45:14.447Z,39.63
2018-02-07T01:47:41.134Z,39.40
2018-02-07T01:50:08.513Z,42.75
2018-02-07T01:52:35.930Z,40.05
2018-02-07T01:55:02.622Z,40.35
2018-02-07T01:57:29.291Z,39.70
2018-02-07T01:59:55.964Z,40.33
2018-02-07T02:02:22.619Z,40.20
2018-02-07T02:04:49.302Z,38.17
2018-02-07T02:07:15.957Z,41.85
2018-02-07T02:09:42.658Z,42.30
2018-02-07T02:12:10.083Z,40.38
2018-02-07T02:14:36.756Z,41.85
2018-02-07T02:17:04.269Z,40.70
2018-02-07T02:19:31.034Z,43.58
2018-02-07T02:21:57.731Z,41.55
2018-02-07T02:24:24.498Z,40.38
2018-02-07T02:26:51.176Z,43.15
2018-02-07T02:29:17.879Z,41.92
2018-02-07T02:31:44.563Z,40.03
2018-02-07T02:34:11.286Z,42.38
2018-02-07T02:36:41.090Z,42.85
2018-02-07T02:39:07.745Z,42.78
2018-02-07T02:41:34.454Z,43.53
2018-02-07T02:44:01.643Z,43.38
2018-02-07T02:46:28.354Z,42.13
2018-02-07T02:48:55.041Z,43.38
2018-02-07T02:51:21.698Z,42.55
2018-02-07T02:53:48.391Z,45.17
2018-02-07T02:56:15.058Z,39.10
2018-02-07T02:58:41.754Z,39.85
2018-02-07T03:01:09.177Z,40.80
2018-02-07T03:03:35.867Z,54.30
2018-02-07T03:06:02.548Z,41.37
2018-02-07T03:08:29.245Z,39.63
2018-02-07T03:10:56.614Z,39.22
2018-02-07T03:13:23.375Z,41.03
2018-02-07T03:15:50.070Z,41.90
2018-02-07T03:18:16.799Z,37.20
2018-02-07T03:20:43.489Z,40.12
2018-02-07T03:23:10.178Z,41.13
2018-02-07T03:25:36.851Z,40.95
2018-02-07T03:28:04.282Z,40.90
2018-02-07T03:30:30.968Z,44.08
2018-02-07T03:32:58.357Z,43.83
2018-02-07T03:35:25.100Z,40.90
2018-02-07T03:37:51.792Z,43.42
2018-02-07T03:40:20.226Z,43.47
2018-02-07T03:42:46.938Z,47.13
2018-02-07T03:45:14.338Z,46.37
2018-02-07T03:47:41.006Z,45.92
2018-02-07T03:50:07.817Z,45.50
2018-02-07T03:52:34.510Z,46.37
2018-02-07T03:55:01.932Z,45.17
2018-02-07T03:57:28.715Z,43.47
2018-02-07T03:59:56.183Z,46.05
2018-02-07T04:02:22.899Z,48.50
2018-02-07T04:04:49.616Z,43.70
2018-02-07T04:07:16.289Z,45.25
2018-02-07T04:09:42.953Z,46.20
2018-02-07T04:12:10.410Z,47.03
2018-02-07T04:14:37.063Z,46.50
2018-02-07T04:17:11.376Z,47.65
2018-02-07T04:19:38.780Z,49.75
2018-02-07T04:22:05.481Z,46.60
2018-02-07T04:24:32.903Z,48.08
2018-02-07T04:26:59.596Z,47.33
2018-02-07T04:29:27.017Z,47.75
2018-02-07T04:31:53.681Z,46.70
2018-02-07T04:34:20.405Z,45.25
2018-02-07T04:36:47.049Z,44.65
2018-02-07T04:39:13.689Z,43.30
2018-02-07T04:41:40.380Z,44.50
2018-02-07T04:44:07.053Z,44.17
2018-02-07T04:46:33.742Z,49.15
2018-02-07T04:49:01.200Z,49.05
2018-02-07T04:51:28.591Z,48.20
2018-02-07T04:53:55.264Z,46.65
2018-02-07T04:56:21.917Z,47.97
2018-02-07T04:58:48.600Z,47.38
2018-02-07T05:01:16.039Z,47.83
2018-02-07T05:03:42.722Z,50.95
2018-02-07T05:06:09.447Z,47.92
2018-02-07T05:08:36.859Z,46.70
2018-02-07T05:11:03.555Z,48.25
2018-02-07T05:13:30.998Z,45.63
2018-02-07T05:15:57.665Z,49.83
2018-02-07T05:18:24.342Z,49.85
2018-02-07T05:20:51.030Z,47.80
2018-02-07T05:23:18.555Z,42.72
2018-02-07T05:25:45.237Z,44.63
2018-02-07T05:28:12.670Z,44.50
2018-02-07T05:30:39.354Z,44.25
2018-02-07T05:33:06.760Z,42.05
2018-02-07T05:35:33.424Z,39.40
2018-02-07T05:38:00.137Z,42.10
2018-02-07T05:40:26.816Z,41.80
2018-02-07T05:42:54.247Z,43.75
2018-02-07T05:45:20.913Z,43.47
2018-02-07T05:47:47.607Z,40.92
2018-02-07T05:50:14.368Z,40.47
2018-02-07T05:52:41.031Z,38.60
2018-02-07T05:55:07.751Z,37.30
2018-02-07T05:57:34.422Z,39.00
2018-02-07T06:00:01.097Z,41.37
2018-02-07T06:02:28.574Z,39.00
2018-02-07T06:04:55.252Z,35.22
2018-02-07T06:07:21.993Z,34.20
2018-02-07T06:09:48.663Z,34.83
2018-02-07T06:12:15.340Z,33.28
2018-02-07T06:14:42.023Z,35.03
2018-02-07T06:17:08.688Z,34.05
2018-02-07T06:19:35.358Z,36.13
2018-02-07T06:22:02.785Z,34.55
2018-02-07T06:24:29.605Z,34.25
2018-02-07T06:26:56.268Z,34.90
2018-02-07T06:29:22.974Z,35.50
2018-02-07T06:31:49.641Z,35.38
2018-02-07T06:34:16.322Z,52.35
2018-02-07T06:36:43.074Z,38.70
2018-02-07T06:39:10.512Z,35.10
2018-02-07T06:41:37.278Z,35.13
2018-02-07T06:44:04.715Z,36.85
2018-02-07T06:46:31.380Z,36.83
2018-02-07T06:48:58.825Z,35.83
2018-02-07T06:51:25.498Z,35.00
2018-02-07T06:53:52.917Z,37.63
2018-02-07T06:56:19.600Z,35.78
2018-02-07T06:58:47.034Z,37.00
2018-02-07T07:01:20.806Z,35.78
2018-02-07T07:03:47.531Z,33.97
2018-02-07T07:06:14.234Z,32.25
2018-02-07T07:08:40.954Z,30.70
2018-02-07T07:11:07.693Z,33.17
2018-02-07T07:13:34.419Z,32.55
2018-02-07T07:16:01.118Z,31.48
2018-02-07T07:18:28.531Z,30.95
2018-02-07T07:20:55.219Z,29.12
2018-02-07T07:23:22.686Z,33.95
2018-02-07T07:25:49.379Z,31.50
2018-02-07T07:28:16.081Z,32.50
2018-02-07T07:30:43.543Z,33.53
2018-02-07T07:33:11.057Z,30.42
2018-02-07T07:35:37.788Z,32.83
2018-02-07T07:38:04.576Z,34.20
2018-02-07T07:40:31.294Z,29.60
2018-02-07T07:42:57.953Z,36.15
2018-02-07T07:45:31.671Z,34.70
2018-02-07T07:47:58.361Z,31.62
2018-02-07T07:50:25.032Z,31.33
2018-02-07T07:52:51.752Z,31.70
2018-02-07T07:55:18.406Z,31.60
2018-02-07T07:57:45.100Z,30.30
2018-02-07T08:00:12.618Z,34.53
2018-02-07T08:02:40.252Z,30.98
2018-02-07T08:05:06.954Z,28.92
2018-02-07T08:07:33.656Z,30.50
2018-02-07T08:10:00.330Z,31.52
2018-02-07T08:12:26.994Z,31.58
2018-02-07T08:14:54.429Z,31.50
2018-02-07T08:17:21.142Z,31.55
2018-02-07T08:19:47.815Z,32.22
2018-02-07T08:22:14.544Z,31.02
2018-02-07T08:24:41.243Z,30.80
2018-02-07T08:27:07.917Z,29.40
2018-02-07T08:29:34.590Z,29.25
2018-02-07T08:32:01.299Z,28.80
2018-02-07T08:34:27.990Z,27.60
2018-02-07T08:36:55.441Z,28.98
2018-02-07T08:39:22.128Z,26.55
2018-02-07T08:41:48.824Z,27.70
2018-02-07T08:44:15.521Z,37.92
2018-02-07T08:46:42.219Z,35.33
2018-02-07T08:49:08.903Z,35.85
2018-02-07T08:51:35.651Z,37.40
2018-02-07T08:54:02.354Z,37.42
2018-02-07T08:56:29.796Z,36.50
2018-02-07T08:58:56.667Z,34.40
2018-02-07T09:01:24.062Z,34.13
2018-02-07T09:03:50.718Z,31.75
2018-02-07T09:06:17.454Z,36.88
2018-02-07T09:08:44.146Z,33.00
2018-02-07T09:11:10.950Z,33.60
2018-02-07T09:13:38.274Z,34.42
2018-02-07T09:16:04.950Z,37.65
2018-02-07T09:18:31.672Z,40.30
2018-02-07T09:20:58.438Z,35.00
2018-02-07T09:23:25.176Z,36.88
2018-02-07T09:25:51.907Z,33.88
2018-02-07T09:28:18.700Z,32.05
2018-02-07T09:30:45.482Z,33.38
2018-02-07T09:33:12.891Z,32.58
2018-02-07T09:35:39.596Z,33.85
2018-02-07T09:38:06.265Z,40.42
2018-02-07T09:40:32.982Z,34.35
2018-02-07T09:42:59.766Z,31.80
2018-02-07T09:45:26.453Z,30.10
2018-02-07T09:47:53.899Z,30.98
2018-02-07T09:50:20.642Z,30.70
2018-02-07T09:52:47.336Z,33.13
2018-02-07T09:55:14.008Z,33.78
2018-02-07T09:57:40.694Z,33.53
2018-02-07T10:00:08.138Z,34.28
2018-02-07T10:02:35.629Z,32.85
2018-02-07T10:05:02.341Z,31.48
2018-02-07T10:07:29.765Z,31.58
2018-02-07T10:09:56.459Z,30.52
2018-02-07T10:12:23.877Z,28.02
2018-02-07T10:14:50.571Z,30.52
2018-02-07T10:17:17.289Z,30.37
2018-02-07T10:19:45.120Z,34.15
2018-02-07T10:22:11.888Z,36.15
2018-02-07T10:24:38.556Z,36.92
2018-02-07T10:27:05.995Z,37.28
2018-02-07T10:29:32.714Z,37.67
2018-02-07T10:31:59.372Z,38.65
2018-02-07T10:34:26.184Z,36.35
2018-02-07T10:36:52.865Z,36.85
2018-02-07T10:39:19.554Z,37.78
2018-02-07T10:41:46.265Z,36.47
2018-02-07T10:44:13.022Z,35.92
2018-02-07T10:46:39.986Z,38.67
2018-02-07T10:49:06.675Z,34.03
2018-02-07T10:51:33.344Z,32.55
2018-02-07T10:54:00.074Z,31.50
2018-02-07T10:56:26.766Z,31.08
2018-02-07T10:58:53.499Z,34.95
2018-02-07T11:01:20.963Z,33.75
2018-02-07T11:03:47.659Z,32.92
2018-02-07T11:06:14.358Z,35.42
2018-02-07T11:08:41.063Z,31.60
2018-02-07T11:11:07.856Z,31.37
2018-02-07T11:13:34.538Z,30.95
2018-02-07T11:16:01.231Z,32.15
2018-02-07T11:18:27.914Z,32.50
2018-02-07T11:20:55.232Z,34.10
2018-02-07T11:23:21.981Z,30.52
2018-02-07T11:25:48.951Z,32.88
2018-02-07T11:28:15.609Z,31.52
2018-02-07T11:30:42.440Z,33.47
2018-02-07T11:33:10.013Z,29.87
2018-02-07T11:35:36.687Z,32.65
2018-02-07T11:38:04.205Z,32.10
2018-02-07T11:40:30.882Z,32.28
2018-02-07T11:42:58.358Z,33.17
2018-02-07T11:45:25.015Z,32.92
2018-02-07T11:47:52.523Z,32.38
2018-02-07T11:50:19.202Z,28.23
2018-02-07T11:52:46.638Z,28.90
2018-02-07T11:55:13.905Z,23.90
2018-02-07T11:57:40.588Z,22.05
2018-02-07T12:00:08.056Z,20.00
2018-02-07T12:02:34.720Z,19.95
2018-02-07T12:05:01.451Z,19.48
2018-02-07T12:07:28.183Z,18.87
2018-02-07T12:09:54.886Z,18.50
2018-02-07T12:12:21.645Z,18.45
2018-02-07T12:14:49.090Z,18.35
2018-02-07T12:17:15.767Z,16.52
2018-02-07T12:19:42.536Z,18.67
2018-02-07T12:22:09.245Z,18.85
2018-02-07T12:24:36.753Z,20.05
2018-02-07T12:27:03.479Z,18.70
2018-02-07T12:29:30.172Z,18.67
2018-02-07T12:31:56.857Z,20.17
2018-02-07T12:34:23.542Z,18.87
2018-02-07T12:36:50.339Z,20.52
2018-02-07T12:39:17.790Z,18.23
2018-02-07T12:41:45.268Z,19.27
2018-02-07T12:44:12.054Z,17.58
2018-02-07T12:46:38.764Z,18.35
2018-02-07T12:49:05.465Z,18.92
2018-02-07T12:51:32.177Z,18.50
2018-02-07T12:53:58.862Z,19.00
2018-02-07T12:56:26.314Z,18.77
2018-02-07T12:58:52.958Z,20.73
2018-02-07T13:01:19.659Z,20.92
2018-02-07T13:03:46.345Z,20.75
2018-02-07T13:06:14.494Z,21.17
2018-02-07T13:08:41.219Z,20.17
2018-02-07T13:11:07.921Z,19.65
2018-02-07T13:13:35.388Z,22.13
2018-02-07T13:16:03.055Z,22.10
2018-02-07T13:18:30.495Z,24.33
2018-02-07T13:20:57.187Z,22.98
2018-02-07T13:23:23.912Z,23.60
2018-02-07T13:25:50.602Z,22.55
2018-02-07T13:28:17.979Z,19.17
2018-02-07T13:30:44.684Z,21.17
2018-02-07T13:33:12.018Z,17.95
2018-02-07T13:35:38.720Z,20.62
2018-02-07T13:38:05.369Z,21.12
2018-02-07T13:40:32.049Z,20.70
2018-02-07T13:42:58.821Z,19.45
2018-02-07T13:45:25.541Z,21.02
2018-02-07T13:47:52.201Z,21.15
2018-02-07T13:50:19.049Z,20.98
2018-02-07T13:52:45.770Z,21.60
2018-02-07T13:55:12.486Z,19.80
2018-02-07T13:57:39.945Z,22.77
2018-02-07T14:00:07.455Z,21.33
2018-02-07T14:02:34.203Z,22.90
2018-02-07T14:05:00.915Z,24.75
2018-02-07T14:07:27.596Z,23.42
2018-02-07T14:09:54.285Z,19.80
2018-02-07T14:12:21.723Z,21.58
2018-02-07T14:14:48.420Z,22.08
2018-02-07T14:17:15.133Z,23.20
2018-02-07T14:19:42.552Z,22.25
2018-02-07T14:22:09.218Z,28.50
2018-02-07T14:24:36.659Z,22.73
2018-02-07T14:27:03.368Z,23.33
2018-02-07T14:29:30.074Z,24.90
2018-02-07T14:31:56.740Z,26.42
2018-02-07T14:34:24.067Z,27.02
2018-02-07T14:36:50.782Z,26.83
2018-02-07T14:39:17.448Z,24.85
2018-02-07T14:41:44.178Z,27.37
2018-02-07T14:44:10.890Z,26.80
2018-02-07T14:46:37.548Z,27.83
2018-02-07T14:49:04.283Z,27.80
2018-02-07T14:51:30.946Z,27.85
2018-02-07T14:53:57.637Z,30.52
2018-02-07T14:56:25.053Z,30.83
2018-02-07T14:58:51.717Z,28.30
2018-02-07T15:01:18.406Z,29.20
2018-02-07T15:03:46.029Z,29.40
2018-02-07T15:06:12.730Z,29.65
2018-02-07T15:08:39.434Z,31.50
2018-02-07T15:11:07.877Z,30.70
2018-02-07T15:13:34.581Z,30.37
2018-02-07T15:16:01.291Z,30.20
2018-02-07T15:18:28.781Z,25.98
2018-02-07T15:20:55.550Z,27.77
2018-02-07T15:23:22.266Z,26.08
2018-02-07T15:25:49.687Z,29.98
2018-02-07T15:28:16.450Z,30.73
2018-02-07T15:30:43.898Z,27.65
2018-02-07T15:33:11.164Z,27.15
2018-02-07T15:35:37.960Z,29.25
2018-02-07T15:38:05.608Z,28.95
2018-02-07T15:40:32.301Z,30.10
2018-02-07T15:42:59.811Z,27.55
2018-02-07T15:45:26.588Z,25.80
2018-02-07T15:47:53.444Z,26.95
2018-02-07T15:50:20.705Z,26.58
2018-02-07T15:52:47.448Z,30.17
2018-02-07T15:55:14.154Z,30.88
2018-02-07T15:57:40.973Z,29.90
2018-02-07T16:00:08.746Z,26.80
2018-02-07T16:02:36.189Z,27.73
2018-02-07T16:05:02.946Z,30.20
2018-02-07T16:07:30.370Z,30.23
2018-02-07T16:09:57.125Z,30.50
2018-02-07T16:12:23.897Z,27.50
2018-02-07T16:14:51.374Z,30.83
2018-02-07T16:17:18.144Z,27.87
2018-02-07T16:19:44.822Z,27.35
2018-02-07T16:22:11.605Z,28.73
2018-02-07T16:24:38.344Z,28.90
2018-02-07T16:27:05.792Z,29.08
2018-02-07T16:29:33.229Z,27.75
2018-02-07T16:32:00.103Z,30.45
2018-02-07T16:34:26.834Z,31.65
2018-02-07T16:36:53.736Z,29.73
2018-02-07T16:39:20.598Z,28.35
2018-02-07T16:41:47.271Z,26.10
2018-02-07T16:44:20.842Z,28.27
2018-02-07T16:46:47.644Z,30.37
2018-02-07T16:49:14.956Z,28.12
2018-02-07T16:51:42.484Z,31.27
2018-02-07T16:54:09.193Z,29.60
2018-02-07T16:56:36.678Z,29.37
2018-02-07T16:59:10.424Z,29.10
2018-02-07T17:01:37.082Z,32.63
2018-02-07T17:04:03.797Z,30.98
2018-02-07T17:06:30.505Z,34.22
2018-02-07T17:08:57.920Z,34.42
2018-02-07T17:11:24.604Z,33.95
2018-02-07T17:13:51.322Z,33.58
2018-02-07T17:16:19.012Z,34.70
2018-02-07T17:18:46.441Z,35.63
2018-02-07T17:21:13.220Z,34.28
2018-02-07T17:23:41.594Z,36.17
2018-02-07T17:26:09.006Z,32.75
2018-02-07T17:28:35.804Z,34.05
2018-02-07T17:31:03.233Z,35.35
2018-02-07T17:33:29.967Z,34.15
2018-02-07T17:35:56.668Z,34.17
2018-02-07T17:38:23.407Z,35.38
2018-02-07T17:40:51.421Z,36.47
2018-02-07T17:43:18.128Z,35.65
2018-02-07T17:45:45.963Z,36.00
2018-02-07T17:48:19.797Z,33.13
2018-02-07T17:50:46.484Z,33.42
2018-02-07T17:53:13.144Z,37.78
2018-02-07T17:55:40.464Z,37.80
2018-02-07T17:58:07.261Z,38.78
2018-02-07T18:00:33.998Z,42.62
2018-02-07T18:03:00.707Z,37.65
2018-02-07T18:05:27.429Z,40.17
2018-02-07T18:07:55.257Z,37.55
2018-02-07T18:10:22.330Z,35.08
2018-02-07T18:12:49.787Z,35.38
2018-02-07T18:15:17.201Z,35.92
2018-02-07T18:17:44.668Z,38.60
2018-02-07T18:20:11.402Z,40.05
2018-02-07T18:22:38.112Z,38.35
2018-02-07T18:25:05.509Z,37.25
2018-02-07T18:27:32.199Z,36.95
2018-02-07T18:29:59.630Z,38.20
2018-02-07T18:32:26.457Z,39.72
2018-02-07T18:34:53.626Z,40.67
2018-02-07T18:37:21.128Z,39.58
2018-02-07T18:39:48.567Z,40.90
2018-02-07T18:42:15.270Z,38.13
2018-02-07T18:44:42.076Z,42.55
2018-02-07T18:47:08.866Z,40.70
2018-02-07T18:49:36.595Z,40.97
2018-02-07T18:52:04.118Z,37.35
2018-02-07T18:54:30.856Z,42.58
2018-02-07T18:56:57.672Z,41.08
2018-02-07T18:59:24.567Z,42.33
2018-02-07T19:01:51.240Z,35.60
2018-02-07T19:04:18.658Z,39.38
2018-02-07T19:06:45.380Z,37.53
2018-02-07T19:09:12.129Z,38.22
2018-02-07T19:11:38.922Z,39.33
2018-02-07T19:14:06.358Z,41.30
2018-02-07T19:16:33.093Z,42.95
2018-02-07T19:18:59.803Z,36.10
2018-02-07T19:21:26.526Z,40.40
2018-02-07T19:23:54.018Z,40.63
2018-02-07T19:26:20.701Z,35.33
2018-02-07T19:28:47.426Z,39.50
2018-02-07T19:31:14.126Z,41.10
2018-02-07T19:33:41.567Z,39.60
2018-02-07T19:36:09.033Z,36.20
2018-02-07T19:38:36.487Z,40.95
2018-02-07T19:41:03.978Z,41.72
2018-02-07T19:43:30.671Z,40.78
2018-02-07T19:45:57.392Z,39.05
2018-02-07T19:48:24.191Z,39.40
2018-02-07T19:50:51.631Z,41.10
2018-02-07T19:53:18.349Z,40.10
2018-02-07T19:55:45.067Z,39.85
2018-02-07T19:58:11.797Z,38.45
2018-02-07T20:00:38.503Z,38.50
2018-02-07T20:03:05.182Z,39.55
2018-02-07T20:05:31.902Z,39.83
2018-02-07T20:07:58.578Z,39.55
2018-02-07T20:10:25.278Z,40.33
2018-02-07T20:12:51.960Z,40.20
2018-02-07T20:15:18.639Z,42.17
2018-02-07T20:17:45.344Z,43.55
2018-02-07T20:20:12.070Z,42.20
2018-02-07T20:22:39.457Z,44.50
2018-02-07T20:25:06.151Z,51.28
2018-02-07T20:27:32.902Z,51.75
2018-02-07T20:29:59.599Z,56.65
2018-02-07T20:32:26.344Z,55.15
2018-02-07T20:34:53.180Z,50.08
2018-02-07T20:37:19.869Z,47.90
2018-02-07T20:39:46.585Z,48.65
2018-02-07T20:42:13.482Z,52.15
2018-02-07T20:44:41.024Z,47.92
2018-02-07T20:47:07.822Z,50.20
2018-02-07T20:49:34.603Z,46.55
2018-02-07T20:52:01.301Z,48.90
2018-02-07T20:54:28.117Z,49.50
2018-02-07T20:56:55.576Z,45.12
2018-02-07T20:59:22.300Z,47.58
2018-02-07T21:01:48.970Z,43.45
2018-02-07T21:04:16.498Z,48.65
2018-02-07T21:06:43.215Z,47.15
2018-02-07T21:09:09.914Z,42.60
2018-02-07T21:11:37.373Z,42.62
2018-02-07T21:14:04.124Z,42.85
2018-02-07T21:16:31.571Z,43.65
2018-02-07T21:18:58.254Z,42.40
2018-02-07T21:21:25.068Z,48.00
2018-02-07T21:23:52.589Z,46.08
2018-02-07T21:26:19.280Z,44.50
2018-02-07T21:28:46.724Z,45.30
2018-02-07T21:31:13.509Z,47.00
2018-02-07T21:33:40.157Z,46.42
2018-02-07T21:36:06.835Z,42.35
2018-02-07T21:38:33.512Z,48.03
2018-02-07T21:41:00.949Z,46.63
2018-02-07T21:43:27.723Z,49.92
2018-02-07T21:45:56.299Z,52.15
2018-02-07T21:48:23.099Z,50.60
2018-02-07T21:50:49.777Z,50.12
2018-02-07T21:53:16.551Z,48.17
2018-02-07T21:55:44.022Z,49.15
2018-02-07T21:58:10.708Z,49.90
2018-02-07T22:00:37.443Z,49.60
2018-02-07T22:03:04.112Z,48.10
2018-02-07T22:05:30.830Z,47.80
2018-02-07T22:07:57.640Z,49.72
2018-02-07T22:10:24.365Z,50.65
2018-02-07T22:12:51.928Z,51.75
2018-02-07T22:15:19.362Z,52.25
2018-02-07T22:17:46.085Z,47.58
2018-02-07T22:20:12.864Z,47.83
2018-02-07T22:22:39.542Z,50.38
2018-02-07T22:25:06.243Z,49.88
2018-02-07T22:27:32.942Z,49.70
2018-02-07T22:29:59.662Z,53.95
2018-02-07T22:32:27.164Z,51.33
2018-02-07T22:34:53.869Z,49.40
2018-02-07T22:37:21.278Z,50.20
2018-02-07T22:39:48.053Z,48.55
2018-02-07T22:42:14.744Z,50.22
2018-02-07T22:44:41.454Z,48.70
2018-02-07T22:47:08.912Z,47.95
2018-02-07T22:49:36.868Z,51.75
2018-02-07T22:52:03.586Z,50.63
2018-02-07T22:54:30.278Z,49.92
2018-02-07T22:56:57.777Z,51.78
2018-02-07T22:59:24.446Z,51.92
2018-02-07T23:01:51.157Z,48.00
2018-02-07T23:04:17.829Z,48.72
2018-02-07T23:06:44.569Z,51.42
2018-02-07T23:09:11.252Z,50.03
2018-02-07T23:11:38.698Z,51.10
2018-02-07T23:14:05.414Z,48.55
2018-02-07T23:16:32.127Z,48.13
2018-02-07T23:18:58.817Z,48.03
2018-02-07T23:21:26.987Z,49.78
2018-02-07T23:23:53.637Z,46.33
2018-02-07T23:26:20.325Z,46.85
2018-02-07T23:28:47.018Z,48.67
2018-02-07T23:31:13.706Z,47.45
2018-02-07T23:33:40.386Z,48.13
2018-02-07T23:36:07.120Z,51.70
2018-02-07T23:38:33.797Z,46.72
2018-02-07T23:41:00.475Z,45.63
2018-02-07T23:43:27.934Z,46.72
2018-02-07T23:45:54.658Z,47.05
2018-02-07T23:48:21.327Z,49.53
2018-02-07T23:50:48.000Z,48.50
2018-02-07T23:53:14.692Z,47.40
2018-02-07T23:55:42.118Z,49.75
2018-02-07T23:58:08.868Z,45.20
